createdAt,value
2019-02-21T00:01:54.159Z,31.00
2019-02-21T00:04:23.155Z,37.63
2019-02-21T00:06:52.087Z,35.70
2019-02-21T00:09:20.549Z,35.97
2019-02-21T00:11:49.113Z,39.50
2019-02-21T00:14:17.579Z,39.50
2019-02-21T00:16:46.075Z,40.80
2019-02-21T00:19:14.527Z,42.10
2019-02-21T00:21:43.015Z,36.17
2019-02-21T00:24:11.567Z,36.10
2019-02-21T00:26:40.201Z,34.57
2019-02-21T00:29:09.012Z,33.13
2019-02-21T00:31:39.897Z,35.77
2019-02-21T00:34:07.796Z,33.13
2019-02-21T00:36:36.573Z,31.80
2019-02-21T00:39:06.698Z,33.00
2019-02-21T00:41:35.395Z,32.43
2019-02-21T00:44:04.167Z,34.07
2019-02-21T00:46:32.818Z,31.27
2019-02-21T00:49:01.408Z,30.90
2019-02-21T00:51:30.193Z,31.30
2019-02-21T00:53:59.157Z,36.70
2019-02-21T00:56:27.859Z,31.33
2019-02-21T00:58:56.483Z,33.40
2019-02-21T01:01:25.083Z,32.17
2019-02-21T01:03:53.656Z,32.60
2019-02-21T01:06:22.284Z,28.63
2019-02-21T01:08:51.026Z,28.27
2019-02-21T01:11:19.727Z,33.83
2019-02-21T01:13:48.397Z,30.90
2019-02-21T01:16:16.933Z,30.60
2019-02-21T01:18:45.565Z,33.57
2019-02-21T01:21:14.221Z,28.77
2019-02-21T01:23:42.851Z,30.47
2019-02-21T01:26:11.594Z,28.50
2019-02-21T01:28:40.361Z,29.37
2019-02-21T01:31:08.987Z,31.40
2019-02-21T01:33:37.506Z,31.50
2019-02-21T01:36:08.427Z,29.57
2019-02-21T01:38:36.954Z,28.63
2019-02-21T01:41:05.667Z,32.63
2019-02-21T01:43:34.274Z,28.97
2019-02-21T01:46:03.033Z,27.77
2019-02-21T01:48:31.667Z,30.97
2019-02-21T01:51:00.240Z,35.20
2019-02-21T01:53:28.737Z,33.47
2019-02-21T01:55:57.330Z,30.27
2019-02-21T01:58:26.102Z,30.67
2019-02-21T02:00:54.934Z,27.87
2019-02-21T02:03:23.556Z,28.07
2019-02-21T02:05:52.280Z,27.03
2019-02-21T02:08:20.972Z,32.57
2019-02-21T02:10:49.492Z,31.57
2019-02-21T02:13:24.681Z,32.77
2019-02-21T02:15:48.475Z,29.43
2019-02-21T02:18:17.079Z,33.37
2019-02-21T02:20:45.635Z,28.97
2019-02-21T02:23:14.207Z,31.20
2019-02-21T02:25:42.838Z,33.73
2019-02-21T02:28:11.565Z,32.67
2019-02-21T02:30:40.231Z,32.17
2019-02-21T02:33:08.815Z,31.17
2019-02-21T02:35:37.526Z,30.13
2019-02-21T02:38:06.221Z,32.23
2019-02-21T02:40:34.809Z,32.93
2019-02-21T02:43:03.461Z,31.43
2019-02-21T02:45:32.204Z,31.37
2019-02-21T02:48:00.766Z,36.70
2019-02-21T02:50:29.298Z,31.77
2019-02-21T02:52:57.939Z,32.03
2019-02-21T02:55:26.583Z,33.63
2019-02-21T02:57:55.146Z,36.07
2019-02-21T03:00:23.792Z,31.13
2019-02-21T03:02:52.370Z,38.17
2019-02-21T03:05:21.029Z,32.47
2019-02-21T03:07:49.629Z,34.70
2019-02-21T03:10:18.282Z,33.57
2019-02-21T03:12:46.910Z,35.60
2019-02-21T03:15:15.545Z,36.47
2019-02-21T03:17:44.544Z,32.97
2019-02-21T03:20:13.324Z,38.33
2019-02-21T03:22:41.901Z,34.73
2019-02-21T03:25:10.599Z,35.73
2019-02-21T03:27:39.187Z,36.17
2019-02-21T03:30:12.272Z,36.23
2019-02-21T03:32:40.343Z,34.87
2019-02-21T03:35:09.534Z,35.47
2019-02-21T03:37:38.144Z,32.00
2019-02-21T03:40:09.063Z,37.30
2019-02-21T03:42:37.739Z,38.27
2019-02-21T03:45:11.831Z,32.90
2019-02-21T03:47:40.469Z,37.43
2019-02-21T03:50:11.204Z,37.47
2019-02-21T03:52:39.900Z,36.37
2019-02-21T03:55:09.176Z,38.23
2019-02-21T03:57:37.886Z,34.93
2019-02-21T04:00:11.360Z,38.00
2019-02-21T04:02:40.052Z,37.07
2019-02-21T04:05:09.005Z,39.50
2019-02-21T04:07:37.623Z,41.73
2019-02-21T04:10:08.483Z,32.40
2019-02-21T04:12:37.556Z,39.77
2019-02-21T04:15:08.743Z,34.80
2019-02-21T04:17:37.250Z,36.03
2019-02-21T04:20:07.131Z,34.93
2019-02-21T04:22:35.739Z,41.07
2019-02-21T04:25:05.702Z,37.87
2019-02-21T04:27:34.233Z,40.33
2019-02-21T04:30:02.909Z,40.53
2019-02-21T04:32:31.533Z,40.60
2019-02-21T04:35:00.338Z,36.00
2019-02-21T04:37:29.077Z,41.87
2019-02-21T04:39:57.604Z,43.40
2019-02-21T04:42:26.326Z,39.37
2019-02-21T04:44:54.874Z,39.77
2019-02-21T04:47:23.602Z,37.20
2019-02-21T04:49:52.624Z,41.03
2019-02-21T04:52:21.249Z,43.03
2019-02-21T04:54:49.873Z,40.77
2019-02-21T04:57:18.444Z,39.47
2019-02-21T04:59:47.113Z,38.63
2019-02-21T05:02:15.814Z,41.10
2019-02-21T05:04:44.454Z,47.13
2019-02-21T05:07:12.996Z,43.60
2019-02-21T05:09:41.564Z,44.13
2019-02-21T05:12:10.339Z,44.27
2019-02-21T05:14:38.944Z,43.73
2019-02-21T05:17:07.584Z,41.00
2019-02-21T05:19:36.155Z,45.80
2019-02-21T05:22:04.685Z,47.03
2019-02-21T05:24:33.175Z,41.10
2019-02-21T05:27:03.289Z,47.30
2019-02-21T05:29:31.857Z,44.70
2019-02-21T05:32:17.048Z,44.67
2019-02-21T05:34:49.717Z,45.63
2019-02-21T05:37:19.856Z,47.83
2019-02-21T05:39:52.826Z,45.93
2019-02-21T05:42:22.946Z,44.13
2019-02-21T05:45:11.034Z,50.07
2019-02-21T05:47:46.697Z,44.97
2019-02-21T05:50:22.371Z,45.00
2019-02-21T05:52:52.467Z,49.03
2019-02-21T05:55:25.581Z,47.63
2019-02-21T05:57:55.748Z,48.23
2019-02-21T06:00:37.741Z,50.30
2019-02-21T06:03:17.149Z,48.80
2019-02-21T06:05:56.330Z,47.97
2019-02-21T06:08:34.893Z,44.77
2019-02-21T06:11:14.132Z,48.37
2019-02-21T06:13:44.813Z,53.50
2019-02-21T06:16:32.687Z,54.07
2019-02-21T06:19:03.299Z,49.30
2019-02-21T06:21:33.395Z,49.10
2019-02-21T06:24:03.494Z,51.37
2019-02-21T06:26:33.618Z,53.60
2019-02-21T06:29:03.828Z,49.73
2019-02-21T06:31:32.539Z,49.43
2019-02-21T06:34:01.044Z,49.23
2019-02-21T06:36:29.656Z,52.83
2019-02-21T06:38:58.221Z,49.00
2019-02-21T06:41:26.708Z,52.47
2019-02-21T06:43:56.881Z,47.60
2019-02-21T06:46:25.571Z,51.07
2019-02-21T06:48:54.067Z,47.50
2019-02-21T06:51:22.528Z,54.00
2019-02-21T06:53:53.102Z,52.17
2019-02-21T06:56:21.211Z,48.57
2019-02-21T06:58:49.727Z,56.03
2019-02-21T07:01:26.420Z,52.00
2019-02-21T07:03:48.378Z,55.57
2019-02-21T07:06:19.098Z,51.90
2019-02-21T07:08:47.160Z,56.83
2019-02-21T07:11:15.724Z,53.60
2019-02-21T07:13:44.256Z,56.13
2019-02-21T07:16:13.231Z,51.60
2019-02-21T07:18:41.875Z,50.83
2019-02-21T07:21:10.371Z,46.57
2019-02-21T07:23:43.518Z,53.27
2019-02-21T07:26:09.258Z,50.50
2019-02-21T07:28:37.836Z,54.83
2019-02-21T07:31:06.381Z,53.07
2019-02-21T07:33:34.852Z,51.47
2019-02-21T07:36:03.486Z,49.50
2019-02-21T07:38:32.052Z,52.13
2019-02-21T07:41:00.754Z,51.83
2019-02-21T07:43:29.529Z,52.53
2019-02-21T07:45:58.028Z,52.40
2019-02-21T07:48:26.501Z,47.90
2019-02-21T07:50:55.068Z,51.07
2019-02-21T07:53:23.534Z,48.87
2019-02-21T07:55:52.103Z,51.83
2019-02-21T07:58:20.605Z,51.53
2019-02-21T08:00:49.146Z,48.77
2019-02-21T08:03:29.563Z,44.97
2019-02-21T08:05:47.916Z,52.90
2019-02-21T08:11:39.437Z,45.73
2019-02-21T08:14:12.014Z,46.33
2019-02-21T08:16:40.630Z,48.03
2019-02-21T08:19:09.163Z,49.20
2019-02-21T08:21:37.892Z,45.90
2019-02-21T08:24:06.503Z,45.50
2019-02-21T08:26:35.142Z,39.87
2019-02-21T08:29:06.041Z,46.67
2019-02-21T08:31:36.544Z,47.50
2019-02-21T08:34:09.883Z,42.00
2019-02-21T08:36:38.484Z,42.87
2019-02-21T08:39:08.955Z,44.70
2019-02-21T08:41:37.603Z,45.70
2019-02-21T08:44:06.133Z,45.17
2019-02-21T08:46:34.625Z,47.67
2019-02-21T08:49:03.169Z,41.67
2019-02-21T08:51:31.769Z,44.27
2019-02-21T08:54:00.339Z,43.90
2019-02-21T08:56:29.970Z,41.03
2019-02-21T08:58:59.038Z,42.60
2019-02-21T09:01:28.662Z,42.60
2019-02-21T09:03:57.263Z,47.43
2019-02-21T09:06:25.792Z,40.87
2019-02-21T09:08:54.449Z,42.70
2019-02-21T09:11:23.035Z,42.30
2019-02-21T09:13:51.573Z,43.00
2019-02-21T09:16:20.139Z,41.53
2019-02-21T09:18:48.691Z,42.43
2019-02-21T09:21:17.159Z,39.53
2019-02-21T09:23:45.647Z,40.83
2019-02-21T09:26:14.116Z,41.33
2019-02-21T09:28:42.754Z,41.20
2019-02-21T09:31:11.251Z,38.03
2019-02-21T09:33:39.718Z,42.63
2019-02-21T09:36:08.255Z,41.73
2019-02-21T09:38:37.040Z,37.93
2019-02-21T09:41:05.722Z,38.17
2019-02-21T09:43:34.286Z,38.30
2019-02-21T09:46:02.960Z,40.00
2019-02-21T09:48:31.462Z,40.40
2019-02-21T09:51:00.008Z,42.20
2019-02-21T09:53:28.478Z,38.43
2019-02-21T09:55:57.041Z,38.27
2019-02-21T09:58:25.619Z,43.70
2019-02-21T10:00:54.089Z,43.10
2019-02-21T10:03:22.651Z,37.50
2019-02-21T10:05:51.299Z,42.60
2019-02-21T10:08:21.829Z,43.63
2019-02-21T10:10:49.981Z,43.73
2019-02-21T10:13:18.540Z,47.00
2019-02-21T10:15:47.227Z,47.90
2019-02-21T10:18:15.759Z,49.83
2019-02-21T10:20:44.224Z,45.30
2019-02-21T10:23:13.037Z,50.93
2019-02-21T10:25:41.586Z,47.23
2019-02-21T10:28:10.075Z,50.47
2019-02-21T10:30:38.535Z,49.80
2019-02-21T10:33:07.108Z,46.43
2019-02-21T10:35:35.674Z,47.70
2019-02-21T10:38:04.240Z,47.67
2019-02-21T10:40:33.483Z,42.83
2019-02-21T10:43:02.154Z,46.87
2019-02-21T10:45:30.720Z,46.00
2019-02-21T10:47:59.232Z,45.73
2019-02-21T10:50:28.048Z,47.53
2019-02-21T10:52:56.516Z,44.87
2019-02-21T10:55:25.082Z,49.53
2019-02-21T10:57:53.618Z,47.17
2019-02-21T11:00:25.824Z,44.50
2019-02-21T11:02:54.619Z,45.83
2019-02-21T11:05:23.387Z,42.77
2019-02-21T11:07:52.083Z,47.80
2019-02-21T11:10:28.640Z,49.10
2019-02-21T11:12:57.545Z,49.67
2019-02-21T11:15:26.654Z,46.83
2019-02-21T11:17:55.271Z,42.30
2019-02-21T11:20:23.871Z,50.17
2019-02-21T11:22:52.431Z,42.77
2019-02-21T11:25:20.996Z,43.97
2019-02-21T11:27:49.528Z,46.03
2019-02-21T11:30:21.547Z,47.47
2019-02-21T11:32:50.129Z,51.70
2019-02-21T11:35:18.843Z,49.77
2019-02-21T11:37:47.714Z,48.67
2019-02-21T11:40:17.404Z,40.23
2019-02-21T11:42:46.124Z,39.57
2019-02-21T11:45:18.621Z,42.57
2019-02-21T11:47:47.352Z,42.70
2019-02-21T11:50:17.427Z,46.70
2019-02-21T11:52:45.983Z,45.80
2019-02-21T11:55:22.299Z,43.60
2019-02-21T11:57:51.006Z,40.97
2019-02-21T12:00:21.657Z,39.77
2019-02-21T12:02:50.260Z,41.97
2019-02-21T12:05:30.252Z,39.23
2019-02-21T12:07:49.164Z,39.40
2019-02-21T12:10:17.664Z,43.23
2019-02-21T12:12:46.277Z,40.70
2019-02-21T12:15:16.085Z,41.40
2019-02-21T12:17:44.633Z,40.00
2019-02-21T12:20:14.971Z,43.43
2019-02-21T12:22:43.507Z,36.63
2019-02-21T12:25:14.551Z,40.20
2019-02-21T12:27:43.132Z,41.10
2019-02-21T12:30:14.241Z,40.60
2019-02-21T12:32:42.779Z,43.90
2019-02-21T12:35:11.716Z,42.30
2019-02-21T12:37:40.325Z,36.77
2019-02-21T12:40:14.784Z,45.57
2019-02-21T12:42:43.294Z,41.43
2019-02-21T12:45:14.520Z,36.20
2019-02-21T12:47:50.703Z,37.13
2019-02-21T12:50:14.130Z,44.27
2019-02-21T12:52:42.692Z,39.87
2019-02-21T12:55:11.795Z,41.43
2019-02-21T12:57:40.477Z,41.23
2019-02-21T13:00:11.670Z,41.30
2019-02-21T13:02:40.211Z,38.23
2019-02-21T13:05:08.856Z,37.03
2019-02-21T13:07:37.396Z,33.10
2019-02-21T13:10:08.896Z,38.27
2019-02-21T13:12:37.476Z,38.27
2019-02-21T13:15:11.380Z,35.23
2019-02-21T13:17:39.987Z,35.93
2019-02-21T13:20:10.872Z,32.10
2019-02-21T13:22:39.377Z,31.27
2019-02-21T13:25:10.752Z,33.47
2019-02-21T13:27:39.387Z,26.13
2019-02-21T13:30:13.067Z,30.10
2019-02-21T13:32:41.649Z,31.43
2019-02-21T13:35:10.970Z,24.40
2019-02-21T13:37:39.529Z,28.33
2019-02-21T13:40:15.843Z,28.67
2019-02-21T13:42:44.697Z,24.30
2019-02-21T13:45:18.067Z,25.90
2019-02-21T13:47:46.816Z,30.27
2019-02-21T13:50:17.289Z,31.87
2019-02-21T13:52:45.858Z,20.90
2019-02-21T13:55:14.659Z,31.00
2019-02-21T13:57:43.224Z,28.53
2019-02-21T14:00:20.226Z,27.40
2019-02-21T14:02:48.896Z,33.73
2019-02-21T14:05:17.484Z,29.63
2019-02-21T14:07:46.017Z,31.57
2019-02-21T14:10:14.963Z,29.03
2019-02-21T14:12:43.602Z,22.97
2019-02-21T14:15:14.816Z,32.33
2019-02-21T14:17:43.284Z,33.73
2019-02-21T14:20:11.980Z,27.90
2019-02-21T14:22:40.566Z,35.43
2019-02-21T14:25:10.890Z,36.77
2019-02-21T14:27:39.553Z,38.53
2019-02-21T14:30:16.322Z,39.50
2019-02-21T14:32:44.858Z,41.13
2019-02-21T14:35:14.336Z,36.77
2019-02-21T14:37:42.992Z,36.63
2019-02-21T14:40:12.801Z,36.90
2019-02-21T14:42:41.447Z,29.20
2019-02-21T14:45:15.743Z,32.47
2019-02-21T14:47:44.328Z,35.93
2019-02-21T14:50:13.407Z,39.33
2019-02-21T14:52:42.137Z,36.97
2019-02-21T14:55:18.186Z,40.97
2019-02-21T14:57:46.999Z,38.87
2019-02-21T15:00:20.909Z,40.20
2019-02-21T15:02:49.515Z,35.43
2019-02-21T15:05:19.190Z,40.77
2019-02-21T15:07:48.668Z,41.30
2019-02-21T15:10:17.319Z,40.53
2019-02-21T15:12:45.951Z,40.87
2019-02-21T15:15:17.126Z,43.73
2019-02-21T15:17:45.772Z,40.90
2019-02-21T15:20:15.950Z,40.57
2019-02-21T15:22:44.460Z,42.57
2019-02-21T15:25:13.368Z,50.13
2019-02-21T15:27:41.932Z,44.30
2019-02-21T15:30:13.144Z,41.83
2019-02-21T15:32:41.640Z,42.97
2019-02-21T15:35:10.486Z,43.87
2019-02-21T15:37:39.121Z,42.57
2019-02-21T15:40:09.682Z,43.83
2019-02-21T15:42:38.217Z,39.30
2019-02-21T15:45:22.342Z,40.77
2019-02-21T15:47:43.093Z,42.73
2019-02-21T15:50:13.735Z,40.73
2019-02-21T15:52:44.586Z,38.47
2019-02-21T15:55:15.776Z,37.07
2019-02-21T15:57:44.244Z,36.30
2019-02-21T16:00:19.783Z,40.00
2019-02-21T16:02:48.262Z,35.57
2019-02-21T16:05:16.835Z,37.40
2019-02-21T16:07:45.515Z,33.00
2019-02-21T16:10:17.112Z,33.47
2019-02-21T16:12:46.057Z,31.47
2019-02-21T16:15:16.343Z,37.33
2019-02-21T16:17:45.378Z,33.30
2019-02-21T16:20:18.215Z,33.70
2019-02-21T16:22:46.770Z,32.03
2019-02-21T16:25:20.805Z,35.97
2019-02-21T16:27:49.375Z,34.73
2019-02-21T16:30:17.879Z,36.23
2019-02-21T16:32:46.463Z,30.30
2019-02-21T16:35:15.568Z,33.07
2019-02-21T16:37:44.084Z,30.07
2019-02-21T16:40:17.759Z,29.60
2019-02-21T16:42:46.396Z,36.87
2019-02-21T16:45:19.361Z,32.10
2019-02-21T16:47:47.934Z,32.43
2019-02-21T16:50:16.550Z,30.03
2019-02-21T16:52:45.116Z,28.17
2019-02-21T16:55:20.934Z,34.93
2019-02-21T16:57:49.749Z,29.00
2019-02-21T17:00:22.309Z,31.17
2019-02-21T17:02:51.034Z,30.77
2019-02-21T17:05:19.869Z,26.33
2019-02-21T17:07:48.427Z,31.63
2019-02-21T17:10:17.937Z,32.20
2019-02-21T17:12:46.474Z,34.27
2019-02-21T17:15:18.368Z,28.17
2019-02-21T17:17:46.907Z,35.90
2019-02-21T17:20:20.746Z,31.17
2019-02-21T17:22:49.356Z,28.93
2019-02-21T17:25:17.934Z,31.33
2019-02-21T17:27:46.602Z,34.10
2019-02-21T17:30:16.618Z,32.63
2019-02-21T17:32:45.339Z,31.37
2019-02-21T17:35:14.559Z,29.27
2019-02-21T17:37:43.096Z,31.13
2019-02-21T17:40:20.124Z,33.23
2019-02-21T17:42:48.752Z,29.77
2019-02-21T17:45:17.311Z,34.73
2019-02-21T17:47:45.955Z,33.43
2019-02-21T17:50:16.488Z,28.67
2019-02-21T17:52:45.128Z,33.00
2019-02-21T17:55:14.367Z,34.67
2019-02-21T17:57:43.016Z,26.33
2019-02-21T18:00:21.869Z,28.87
2019-02-21T18:02:50.485Z,28.90
2019-02-21T18:05:19.069Z,15.40
2019-02-21T18:07:47.636Z,20.60
2019-02-21T18:10:17.256Z,32.20
2019-02-21T18:12:45.903Z,35.27
2019-02-21T18:15:15.681Z,33.57
2019-02-21T18:17:44.218Z,32.27
2019-02-21T18:20:14.333Z,33.93
2019-02-21T18:22:47.669Z,31.53
2019-02-21T18:25:35.104Z,39.23
2019-02-21T18:28:03.701Z,41.47
2019-02-21T18:30:37.188Z,39.03
2019-02-21T18:33:05.750Z,40.38
2019-02-21T18:35:34.381Z,36.90
2019-02-21T18:38:03.027Z,39.63
2019-02-21T18:40:32.958Z,43.07
2019-02-21T18:43:03.249Z,40.07
2019-02-21T18:45:31.953Z,42.37
2019-02-21T18:48:00.568Z,43.28
2019-02-21T18:50:37.701Z,43.33
2019-02-21T18:52:59.719Z,44.17
2019-02-21T18:55:28.288Z,44.93
2019-02-21T18:57:56.761Z,44.50
2019-02-21T19:00:26.476Z,53.33
2019-02-21T19:02:55.761Z,49.70
2019-02-21T19:05:34.915Z,48.20
2019-02-21T19:08:02.139Z,45.90
2019-02-21T19:10:24.976Z,51.33
2019-02-21T19:12:53.508Z,51.47
2019-02-21T19:15:22.693Z,51.30
2019-02-21T19:17:51.295Z,51.93
2019-02-21T19:20:22.098Z,53.33
2019-02-21T19:22:50.699Z,58.10
2019-02-21T19:25:19.406Z,60.13
2019-02-21T19:27:48.015Z,57.73
2019-02-21T19:30:25.821Z,62.93
2019-02-21T19:32:54.586Z,60.30
2019-02-21T19:35:23.367Z,67.40
2019-02-21T19:37:51.857Z,64.10
2019-02-21T19:40:20.531Z,61.07
2019-02-21T19:42:49.257Z,65.53
2019-02-21T19:45:17.892Z,64.83
2019-02-21T19:47:46.548Z,64.20
2019-02-21T19:50:15.306Z,62.60
2019-02-21T19:52:43.947Z,67.83
2019-02-21T19:55:12.855Z,68.97
2019-02-21T19:57:41.552Z,72.17
2019-02-21T20:00:26.348Z,66.00
2019-02-21T20:02:55.179Z,68.53
2019-02-21T20:05:24.103Z,80.60
2019-02-21T20:07:52.668Z,82.70
2019-02-21T20:10:21.470Z,79.83
2019-02-21T20:12:49.992Z,88.03
2019-02-21T20:15:18.631Z,94.03
2019-02-21T20:17:47.144Z,97.27
2019-02-21T20:20:24.712Z,101.47
2019-02-21T20:22:53.321Z,111.43
2019-02-21T20:25:22.264Z,106.10
2019-02-21T20:27:50.754Z,100.20
2019-02-21T20:30:22.418Z,104.50
2019-02-21T20:32:51.058Z,114.13
2019-02-21T20:35:19.958Z,106.23
2019-02-21T20:37:48.579Z,110.60
2019-02-21T20:40:17.120Z,105.73
2019-02-21T20:42:45.770Z,107.60
2019-02-21T20:45:15.177Z,111.50
2019-02-21T20:47:43.707Z,117.50
2019-02-21T20:50:13.384Z,113.57
2019-02-21T20:52:42.215Z,112.00
2019-02-21T20:55:11.877Z,120.07
2019-02-21T20:57:40.573Z,117.87
2019-02-21T21:00:17.749Z,121.60
2019-02-21T21:02:46.315Z,113.20
2019-02-21T21:05:15.368Z,124.50
2019-02-21T21:07:43.984Z,121.97
2019-02-21T21:10:17.275Z,126.60
2019-02-21T21:12:50.405Z,116.70
2019-02-21T21:15:24.098Z,111.27
2019-02-21T21:17:54.533Z,76.27
2019-02-21T21:20:25.918Z,104.93
2019-02-21T21:22:54.063Z,108.32
2019-02-21T21:25:22.532Z,101.33
2019-02-21T21:27:51.235Z,100.40
2019-02-21T21:30:20.982Z,93.93
2019-02-21T21:32:49.520Z,94.57
2019-02-21T21:35:18.640Z,90.13
2019-02-21T21:37:47.285Z,90.23
2019-02-21T21:40:19.810Z,84.60
2019-02-21T21:42:48.347Z,84.40
2019-02-21T21:45:17.978Z,88.67
2019-02-21T21:47:46.591Z,84.60
2019-02-21T21:50:17.475Z,85.00
2019-02-21T21:52:46.021Z,77.47
2019-02-21T21:55:15.299Z,80.67
2019-02-21T21:57:44.071Z,71.43
2019-02-21T22:01:14.594Z,71.33
2019-02-21T22:03:43.224Z,67.00
2019-02-21T22:06:12.851Z,64.03
2019-02-21T22:08:41.459Z,62.07
2019-02-21T22:11:10.068Z,65.33
2019-02-21T22:13:38.646Z,66.03
2019-02-21T22:16:07.384Z,71.90
2019-02-21T22:18:40.633Z,63.47
2019-02-21T22:21:10.925Z,62.57
2019-02-21T22:23:39.453Z,68.27
2019-02-21T22:26:08.014Z,66.47
2019-02-21T22:28:36.609Z,62.77
2019-02-21T22:31:05.228Z,71.03
2019-02-21T22:33:36.293Z,70.77
2019-02-21T22:36:05.192Z,65.27
2019-02-21T22:38:34.118Z,67.80
2019-02-21T22:41:02.649Z,64.97
2019-02-21T22:43:31.353Z,68.70
2019-02-21T22:46:00.500Z,68.47
2019-02-21T22:48:29.916Z,62.43
2019-02-21T22:50:58.452Z,62.13
2019-02-21T22:53:27.040Z,67.30
2019-02-21T22:55:55.594Z,60.50
2019-02-21T22:58:24.068Z,62.53
2019-02-21T23:01:01.383Z,64.03
2019-02-21T23:03:38.851Z,69.63
2019-02-21T23:06:25.279Z,76.17
2019-02-21T23:58:09.103Z,59.83
